Terminal Aerodrome Forecast
Issued by NWS

Home | Current Version | Previous Version | Text Only | Print | Product List | Glossary On
Versions: 1 2 3 4 5 6 7 8 9 10 11 12 13 14 15 16
000
FTUS43 KBIS 241100
TAFMOT
TAF
KMOT 241120Z 2412/2512 22007KT P6SM VCFG FEW130
      TEMPO 2412/2414 4SM BR
     FM241400 27011KT P6SM FEW120
     FM241700 29015G21KT P6SM VCSH SCT040 BKN060
     FM250100 27004KT P6SM FEW100
     FM250400 24006KT P6SM SCT090 SCT120=

USA.gov is the U.S. government's official web portal to all federal, state and local government web resources and services.